createdAt,value
2019-04-23T00:02:51.116Z,34.95
2019-04-23T00:08:18.896Z,34.91
2019-04-23T00:13:12.472Z,35.06
2019-04-23T00:18:22.282Z,34.79
2019-04-23T00:23:35.067Z,34.89
2019-04-23T00:28:47.906Z,35.23
2019-04-23T00:33:57.537Z,35.52
2019-04-23T00:39:08.186Z,35.42
2019-04-23T00:44:25.007Z,35.48
2019-04-23T00:49:37.235Z,35.30
2019-04-23T01:10:20.570Z,35.99
2019-04-23T01:15:37.254Z,36.28
2019-04-23T01:20:52.038Z,36.10
2019-04-23T01:25:50.087Z,36.26
2019-04-23T01:31:18.170Z,36.24
2019-04-23T01:41:33.320Z,36.13
2019-04-23T01:57:11.131Z,36.54
2019-04-23T02:07:35.662Z,36.78
2019-04-23T02:12:53.617Z,37.11
2019-04-23T02:18:02.150Z,37.14
2019-04-23T02:23:19.942Z,37.24
2019-04-23T02:28:46.070Z,37.33
2019-04-23T02:33:44.529Z,37.50
2019-04-23T02:44:11.688Z,37.99
2019-04-23T02:49:27.255Z,38.08
2019-04-23T03:00:08.075Z,38.22
2019-04-23T03:05:04.461Z,38.51
2019-04-23T03:10:11.817Z,38.77
2019-04-23T03:20:59.177Z,38.98
2019-04-23T03:26:08.540Z,39.16
2019-04-23T03:32:52.675Z,39.38
2019-04-23T03:37:00.569Z,39.75
2019-04-23T03:41:56.131Z,39.68
2019-04-23T03:47:04.194Z,39.92
2019-04-23T03:52:21.260Z,39.83
2019-04-23T03:57:25.285Z,39.96
2019-04-23T04:02:52.728Z,39.91
2019-04-23T04:13:30.720Z,40.20
2019-04-23T04:23:53.459Z,40.68
2019-04-23T04:29:00.649Z,40.67
2019-04-23T04:39:29.354Z,40.66
2019-04-23T04:44:42.698Z,41.16
2019-04-23T04:49:56.516Z,41.30
2019-04-23T04:55:16.237Z,41.25
2019-04-23T05:06:11.773Z,41.41
2019-04-23T05:11:04.751Z,41.61
2019-04-23T05:21:20.437Z,41.59
2019-04-23T05:31:36.066Z,41.54
2019-04-23T05:37:01.865Z,41.32
2019-04-23T05:42:17.636Z,41.47
2019-04-23T05:47:58.624Z,41.16
2019-04-23T05:52:57.795Z,41.39
2019-04-23T05:58:06.449Z,41.38
2019-04-23T06:03:16.040Z,41.07
2019-04-23T06:08:32.016Z,41.36
2019-04-23T06:13:44.495Z,41.12
2019-04-23T06:18:56.908Z,41.17
2019-04-23T06:24:02.395Z,41.05
2019-04-23T06:39:42.730Z,40.83
2019-04-23T06:44:58.455Z,40.86
2019-04-23T06:50:08.198Z,40.78
2019-04-23T07:00:48.816Z,40.58
2019-04-23T07:16:33.228Z,40.13
2019-04-23T07:21:55.955Z,39.89
2019-04-23T07:26:54.986Z,39.45
2019-04-23T07:32:13.094Z,39.62
2019-04-23T07:37:24.117Z,39.31
2019-04-23T07:42:56.641Z,39.19
2019-04-23T07:48:16.439Z,39.14
2019-04-23T07:53:46.648Z,39.11
2019-04-23T07:58:52.528Z,38.64
2019-04-23T08:04:12.035Z,38.36
2019-04-23T08:09:35.399Z,38.20
2019-04-23T08:14:48.217Z,37.42
2019-04-23T08:19:56.454Z,36.98
2019-04-23T08:25:12.595Z,37.11
2019-04-23T08:30:19.079Z,36.86
2019-04-23T08:35:35.923Z,36.65
2019-04-23T08:41:02.570Z,36.96
2019-04-23T08:46:15.285Z,37.35
2019-04-23T08:51:38.913Z,36.96
2019-04-23T08:56:55.056Z,37.39
2019-04-23T09:02:24.192Z,36.69
2019-04-23T09:07:35.916Z,36.55
2019-04-23T09:12:47.438Z,36.32
2019-04-23T09:23:11.593Z,36.44
2019-04-23T09:34:16.669Z,35.79
2019-04-23T09:39:43.073Z,35.32
2019-04-23T09:45:15.561Z,34.86
2019-04-23T09:50:24.027Z,34.99
2019-04-23T09:55:35.623Z,35.77
2019-04-23T10:05:42.227Z,34.80
2019-04-23T10:10:45.173Z,34.58
2019-04-23T10:16:15.370Z,34.47
2019-04-23T10:21:29.291Z,33.74
2019-04-23T10:26:41.862Z,34.13
2019-04-23T10:31:55.673Z,34.08
2019-04-23T10:37:07.169Z,33.70
2019-04-23T10:42:21.901Z,34.35
2019-04-23T10:53:29.959Z,34.23
2019-04-23T11:04:09.798Z,33.77
2019-04-23T11:09:29.305Z,33.51
2019-04-23T11:14:27.131Z,33.70
2019-04-23T11:19:52.812Z,32.00
2019-04-23T11:24:50.069Z,31.94
2019-04-23T11:30:11.925Z,31.67
2019-04-23T11:35:22.777Z,32.27
2019-04-23T11:40:40.417Z,32.66
2019-04-23T11:56:48.726Z,33.10
2019-04-23T12:07:22.680Z,32.80
2019-04-23T12:12:43.009Z,30.82
2019-04-23T12:17:55.934Z,30.86
2019-04-23T12:23:12.339Z,29.83
2019-04-23T12:28:23.497Z,29.87
2019-04-23T12:33:39.126Z,29.60
2019-04-23T12:38:41.018Z,29.55
2019-04-23T12:43:57.957Z,29.73
2019-04-23T12:49:34.377Z,28.73
2019-04-23T12:54:41.269Z,27.74
2019-04-23T12:59:56.951Z,28.97
2019-04-23T13:10:45.279Z,29.35
2019-04-23T13:16:06.404Z,27.40
2019-04-23T13:21:22.036Z,27.77
2019-04-23T13:26:23.589Z,27.92
2019-04-23T13:31:42.244Z,27.88
2019-04-23T13:36:59.755Z,26.07
2019-04-23T13:42:40.991Z,26.99
2019-04-23T14:08:50.465Z,27.68
2019-04-23T14:14:15.159Z,27.61
2019-04-23T14:19:22.841Z,27.21
2019-04-23T14:25:04.962Z,27.73
2019-04-23T14:29:55.980Z,27.90
2019-04-23T14:40:37.449Z,28.99
2019-04-23T14:45:58.147Z,29.73
2019-04-23T14:50:57.581Z,29.75
2019-04-23T14:56:09.491Z,29.71
2019-04-23T15:06:46.709Z,30.34
2019-04-23T15:12:06.144Z,30.21
2019-04-23T15:17:07.175Z,30.77
2019-04-23T15:22:20.328Z,30.91
2019-04-23T15:33:41.283Z,30.99
2019-04-23T15:43:51.381Z,30.60
2019-04-23T15:49:01.279Z,30.57
2019-04-23T15:54:28.214Z,30.48
2019-04-23T15:59:55.879Z,30.76
2019-04-23T16:04:41.747Z,30.88
2019-04-23T16:10:22.283Z,31.18
2019-04-23T16:21:10.479Z,31.27
2019-04-23T16:26:08.706Z,31.28
2019-04-23T16:31:20.786Z,31.72
2019-04-23T16:36:32.850Z,32.08
2019-04-23T16:41:49.093Z,32.04
2019-04-23T16:47:04.452Z,32.18
2019-04-23T17:02:34.828Z,32.88
2019-04-23T17:08:30.637Z,32.83
2019-04-23T17:18:34.728Z,33.11
2019-04-23T17:29:16.086Z,34.01
2019-04-23T17:34:30.758Z,34.28
2019-04-23T17:40:12.293Z,34.08
2019-04-23T17:51:16.571Z,34.71
2019-04-23T18:01:36.030Z,35.18
2019-04-23T18:12:19.797Z,35.92
2019-04-23T18:17:24.210Z,35.98
2019-04-23T18:22:34.026Z,35.90
2019-04-23T18:27:38.389Z,36.17
2019-04-23T18:38:18.568Z,36.25
2019-04-23T18:43:29.391Z,36.24
2019-04-23T18:59:10.241Z,37.63
2019-04-23T19:04:54.998Z,37.34
2019-04-23T19:15:33.746Z,37.88
2019-04-23T19:20:46.423Z,37.98
2019-04-23T19:25:40.555Z,38.36
2019-04-23T19:31:14.724Z,38.70
2019-04-23T19:36:26.524Z,38.88
2019-04-23T19:41:55.881Z,38.99
2019-04-23T19:47:01.737Z,39.40
2019-04-23T19:57:19.431Z,39.52
2019-04-23T20:02:45.260Z,39.77
2019-04-23T20:08:04.487Z,40.04
2019-04-23T20:12:51.802Z,40.07
2019-04-23T20:18:05.750Z,40.22
2019-04-23T20:23:47.785Z,40.48
2019-04-23T20:29:11.854Z,40.60
2019-04-23T20:39:45.617Z,40.92
2019-04-23T20:49:58.264Z,41.25
2019-04-23T20:55:29.428Z,42.01
2019-04-23T21:05:44.652Z,42.05
2019-04-23T21:10:55.394Z,41.63
2019-04-23T21:16:41.269Z,42.21
2019-04-23T21:22:13.587Z,42.29
2019-04-23T21:43:20.611Z,42.67
2019-04-23T21:48:50.933Z,42.70
2019-04-23T21:53:46.345Z,42.81
2019-04-23T22:09:30.018Z,43.55
2019-04-23T22:14:57.368Z,43.98
2019-04-23T22:25:45.148Z,44.45
2019-04-23T22:30:55.041Z,44.16
2019-04-23T22:36:16.498Z,44.35
2019-04-23T22:41:17.822Z,44.80
2019-04-23T22:46:37.139Z,44.84
2019-04-23T23:02:25.414Z,45.38
2019-04-23T23:13:18.661Z,45.45
2019-04-23T23:23:40.373Z,45.71
2019-04-23T23:28:44.726Z,45.29
2019-04-23T23:39:25.049Z,44.97
2019-04-23T23:50:07.382Z,45.04
2019-04-23T23:55:16.086Z,45.80
